Time,TemperatureF,DewpointF,PressureIn,WindDirection,WindDirectionDegrees,WindSpeedMPH,WindSpeedGustMPH,Humidity,HourlyPrecipIn,Conditions,Clouds,dailyrainin,SoftwareType,DateUTC
2013-03-10 00:00:00,28.4,23.3,30.31,ENE,60,0.0,0.0,81,0.00,CLR,,0.00,WeatherDisplay:10.37,2013-03-10 05:00:00,
2013-03-10 00:15:00,28.2,23.4,30.31,ENE,60,0.0,0.0,82,0.00,CLR,,0.00,WeatherDisplay:10.37,2013-03-10 05:15:00,
2013-03-10 00:30:00,27.5,22.4,30.31,ENE,60,0.0,0.0,81,0.00,CLR,,0.00,WeatherDisplay:10.37,2013-03-10 05:30:00,
2013-03-10 00:45:00,27.3,22.3,30.31,ENE,60,0.0,0.0,81,0.00,CLR,,0.00,WeatherDisplay:10.37,2013-03-10 05:45:00,
2013-03-10 01:00:00,27.1,22.1,30.31,ENE,60,0.0,0.0,81,0.00,CLR,,0.00,WeatherDisplay:10.37,2013-03-10 06:00:00,
2013-03-10 01:15:00,27.0,21.9,30.31,ENE,60,0.0,0.0,81,0.00,CLR,,0.00,WeatherDisplay:10.37,2013-03-10 06:15:00,
2013-03-10 01:30:00,27.0,22.2,30.31,ENE,60,0.0,0.0,82,0.00,CLR,,0.00,WeatherDisplay:10.37,2013-03-10 06:30:00,
2013-03-10 01:45:00,26.6,21.8,30.31,ENE,60,0.0,0.0,82,0.00,CLR,,0.00,WeatherDisplay:10.37,2013-03-10 06:45:00,
2013-03-10 03:00:00,26.6,22.1,30.31,ENE,60,0.0,0.0,83,0.00,CLR,,0.00,WeatherDisplay:10.37,2013-03-10 07:00:00,
2013-03-10 03:15:00,26.2,21.8,30.31,ENE,60,0.0,0.0,83,0.00,CLR,,0.00,WeatherDisplay:10.37,2013-03-10 07:15:00,
2013-03-10 03:30:00,26.2,21.8,30.31,ENE,60,0.0,0.0,83,0.00,CLR,,0.00,WeatherDisplay:10.37,2013-03-10 07:30:00,
2013-03-10 03:45:00,26.4,22.2,30.31,ENE,60,0.0,0.0,84,0.00,CLR,,0.00,WeatherDisplay:10.37,2013-03-10 07:45:00,
2013-03-10 04:00:00,26.2,22.1,30.31,ENE,60,0.0,0.0,84,0.00,CLR,,0.00,WeatherDisplay:10.37,2013-03-10 08:00:00,
2013-03-10 04:15:00,26.1,22.2,30.31,ENE,60,0.0,0.0,85,0.00,CLR,,0.00,WeatherDisplay:10.37,2013-03-10 08:15:00,
2013-03-10 04:30:00,25.7,21.8,30.31,ENE,60,0.0,0.0,85,0.00,CLR,,0.00,WeatherDisplay:10.37,2013-03-10 08:30:00,
2013-03-10 04:45:00,25.3,21.5,30.31,ENE,60,0.0,0.0,85,0.00,CLR,,0.00,WeatherDisplay:10.37,2013-03-10 08:45:00,
2013-03-10 05:00:00,25.5,21.6,30.31,ENE,60,0.0,0.0,85,0.00,CLR,,0.00,WeatherDisplay:10.37,2013-03-10 09:00:00,
2013-03-10 05:15:00,25.5,21.9,30.31,ENE,60,0.0,0.0,86,0.00,CLR,,0.00,WeatherDisplay:10.37,2013-03-10 09:15:00,
2013-03-10 05:30:00,25.3,21.7,30.31,ENE,60,0.0,0.0,86,0.00,CLR,,0.00,WeatherDisplay:10.37,2013-03-10 09:30:00,
2013-03-10 05:45:00,25.2,21.6,30.34,ENE,60,0.0,0.0,86,0.00,CLR,,0.00,WeatherDisplay:10.37,2013-03-10 09:45:00,
2013-03-10 06:00:00,25.2,21.6,30.34,ENE,60,0.0,0.0,86,0.00,CLR,,0.00,WeatherDisplay:10.37,2013-03-10 10:00:00,
2013-03-10 06:15:00,25.0,21.7,30.34,ENE,60,0.0,0.0,87,0.00,CLR,,0.00,WeatherDisplay:10.37,2013-03-10 10:15:00,
2013-03-10 06:30:00,25.0,21.7,30.34,ENE,60,0.0,0.0,87,0.00,CLR,,0.00,WeatherDisplay:10.37,2013-03-10 10:30:00,
2013-03-10 06:45:00,25.0,21.7,30.34,ENE,60,0.0,0.0,87,0.00,CLR,,0.00,WeatherDisplay:10.37,2013-03-10 10:45:00,
2013-03-10 07:00:00,24.8,21.8,30.34,ENE,60,0.0,0.0,88,0.00,CLR,,0.00,WeatherDisplay:10.37,2013-03-10 11:00:00,
2013-03-10 07:15:00,24.6,21.6,30.34,ENE,60,0.0,0.0,88,0.00,CLR,,0.00,WeatherDisplay:10.37,2013-03-10 11:15:00,
2013-03-10 07:30:00,25.0,21.9,30.34,ENE,60,0.0,0.0,88,0.00,CLR,,0.00,WeatherDisplay:10.37,2013-03-10 11:30:00,
2013-03-10 07:45:00,25.2,22.4,30.34,ENE,60,0.0,0.0,89,0.00,CLR,,0.00,WeatherDisplay:10.37,2013-03-10 11:45:00,
2013-03-10 08:00:00,26.1,23.3,30.34,East,86,0.0,0.0,89,0.00,CLR,,0.00,WeatherDisplay:10.37,2013-03-10 12:00:00,
2013-03-10 08:15:00,27.3,24.8,30.34,ESE,115,0.0,0.0,90,0.00,CLR,,0.00,WeatherDisplay:10.37,2013-03-10 12:15:00,
2013-03-10 08:30:00,30.2,28.4,30.34,NE,50,0.0,0.0,93,0.00,CLR,,0.00,WeatherDisplay:10.37,2013-03-10 12:30:00,
2013-03-10 08:45:00,33.3,32.2,30.34,NE,50,0.0,2.0,96,0.00,CLR,,0.00,WeatherDisplay:10.37,2013-03-10 12:45:00,
2013-03-10 09:00:00,33.8,32.8,30.34,NE,50,1.0,2.0,96,0.00,CLR,,0.00,WeatherDisplay:10.37,2013-03-10 13:00:00,
2013-03-10 09:15:00,39.7,38.2,30.34,NE,47,2.0,7.0,94,0.00,CLR,,0.00,WeatherDisplay:10.37,2013-03-10 13:15:00,
2013-03-10 09:30:00,42.3,37.5,30.34,ENE,64,6.0,8.0,83,0.00,CLR,,0.00,WeatherDisplay:10.37,2013-03-10 13:30:00,
2013-03-10 09:45:00,43.5,35.1,30.37,NE,48,6.0,7.0,72,0.00,CLR,,0.00,WeatherDisplay:10.37,2013-03-10 13:45:00,
2013-03-10 10:00:00,44.8,34.5,30.37,ENE,58,8.0,10.0,67,0.00,CLR,,0.00,WeatherDisplay:10.37,2013-03-10 14:00:00,
2013-03-10 10:15:00,45.9,34.8,30.37,NE,54,7.0,9.0,65,0.00,CLR,,0.00,WeatherDisplay:10.37,2013-03-10 14:15:00,
2013-03-10 10:30:00,47.1,35.2,30.37,East,98,7.0,11.0,63,0.00,CLR,,0.00,WeatherDisplay:10.37,2013-03-10 14:30:00,
2013-03-10 10:45:00,48.2,35.4,30.37,ENE,70,8.0,11.0,61,0.00,CLR,,0.00,WeatherDisplay:10.37,2013-03-10 14:45:00,
2013-03-10 11:00:00,48.0,34.8,30.37,ENE,64,8.0,9.0,60,0.00,CLR,,0.00,WeatherDisplay:10.37,2013-03-10 15:00:00,
2013-03-10 11:15:00,48.9,35.2,30.37,East,85,7.0,10.0,59,0.00,SCT,,0.00,WeatherDisplay:10.37,2013-03-10 15:15:00,
2013-03-10 11:30:00,46.9,33.8,30.34,ENE,64,9.0,12.0,60,0.00,SCT,,0.00,WeatherDisplay:10.37,2013-03-10 15:30:00,
2013-03-10 11:45:00,46.6,33.4,30.37,East,79,10.0,13.0,60,0.00,SCT,,0.00,WeatherDisplay:10.37,2013-03-10 15:45:00,
2013-03-10 12:00:00,47.7,34.0,30.37,ENE,57,10.0,12.0,59,0.00,SCT,,0.00,WeatherDisplay:10.37,2013-03-10 16:00:00,
2013-03-10 12:15:00,47.8,33.8,30.37,NE,56,10.0,16.0,58,0.00,BKN,,0.00,WeatherDisplay:10.37,2013-03-10 16:15:00,
2013-03-10 12:30:00,48.7,33.3,30.37,East,84,8.0,11.0,55,0.00,BKN,,0.00,WeatherDisplay:10.37,2013-03-10 16:30:00,
2013-03-10 12:45:00,48.7,33.7,30.37,NNE,29,6.0,11.0,56,0.00,BKN,,0.00,WeatherDisplay:10.37,2013-03-10 16:45:00,
2013-03-10 13:00:00,48.2,33.2,30.37,East,95,8.0,12.0,56,0.00,BKN,,0.00,WeatherDisplay:10.37,2013-03-10 17:00:00,
2013-03-10 13:15:00,47.8,33.3,30.37,East,80,8.0,11.0,57,0.00,FEW,,0.00,WeatherDisplay:10.37,2013-03-10 17:15:00,
2013-03-10 13:30:00,46.8,32.3,30.37,NE,49,8.0,11.0,57,0.00,FEW,,0.00,WeatherDisplay:10.37,2013-03-10 17:30:00,
2013-03-10 13:45:00,45.9,32.3,30.37,NE,47,10.0,13.0,59,0.00,SCT,,0.00,WeatherDisplay:10.37,2013-03-10 17:45:00,
2013-03-10 14:00:00,47.3,33.3,30.37,East,80,9.0,11.0,58,0.00,FEW,,0.00,WeatherDisplay:10.37,2013-03-10 18:00:00,
2013-03-10 14:15:00,46.6,32.6,30.34,NE,38,8.0,9.0,58,0.00,,,0.00,WeatherDisplay:10.37,2013-03-10 18:15:00,
2013-03-10 14:30:00,46.6,32.1,30.34,NE,56,8.0,13.0,57,0.00,SCT,,0.00,WeatherDisplay:10.37,2013-03-10 18:30:00,
2013-03-10 14:45:00,46.6,33.0,30.34,ENE,60,9.0,12.0,59,0.00,BKN,,0.00,WeatherDisplay:10.37,2013-03-10 18:45:00,
2013-03-10 15:00:00,47.3,33.3,30.34,ENE,61,7.0,8.0,58,0.00,BKN,,0.00,WeatherDisplay:10.37,2013-03-10 19:00:00,
2013-03-10 15:15:00,46.4,32.4,30.34,ENE,62,7.0,8.0,58,0.00,FEW,,0.00,WeatherDisplay:10.37,2013-03-10 19:15:00,
2013-03-10 15:30:00,46.6,32.6,30.31,ENE,62,8.0,13.0,58,0.00,FEW,,0.00,WeatherDisplay:10.37,2013-03-10 19:30:00,
2013-03-10 15:45:00,46.2,32.2,30.31,East,101,9.0,13.0,58,0.00,FEW,,0.00,WeatherDisplay:10.37,2013-03-10 19:45:00,
2013-03-10 16:00:00,46.2,32.7,30.31,ESE,111,8.0,11.0,59,0.00,FEW,,0.00,WeatherDisplay:10.37,2013-03-10 20:00:00,
2013-03-10 16:15:00,45.9,32.3,30.31,East,91,5.0,9.0,59,0.00,FEW,,0.00,WeatherDisplay:10.37,2013-03-10 20:15:00,
2013-03-10 16:30:00,46.4,32.4,30.31,ENE,70,3.0,7.0,58,0.00,FEW,,0.00,WeatherDisplay:10.37,2013-03-10 20:30:00,
2013-03-10 16:45:00,45.7,32.2,30.31,ENE,60,6.0,7.0,59,0.00,CLR,,0.00,WeatherDisplay:10.37,2013-03-10 20:45:00,
2013-03-10 17:00:00,45.1,32.1,30.31,NE,56,6.0,8.0,60,0.00,CLR,,0.00,WeatherDisplay:10.37,2013-03-10 21:00:00,
2013-03-10 17:15:00,45.1,32.1,30.31,ENE,67,7.0,8.0,60,0.00,CLR,,0.00,WeatherDisplay:10.37,2013-03-10 21:15:00,
2013-03-10 17:30:00,45.0,32.3,30.31,ENE,70,6.0,8.0,61,0.00,CLR,,0.00,WeatherDisplay:10.37,2013-03-10 21:30:00,
2013-03-10 17:45:00,44.6,32.0,30.31,ENE,74,5.0,6.0,61,0.00,CLR,,0.00,WeatherDisplay:10.37,2013-03-10 21:45:00,
2013-03-10 18:00:00,43.5,31.8,30.31,ENE,62,6.0,8.0,63,0.00,CLR,,0.00,WeatherDisplay:10.37,2013-03-10 22:00:00,
2013-03-10 18:15:00,43.0,31.6,30.31,ENE,75,5.0,6.0,64,0.00,CLR,,0.00,WeatherDisplay:10.37,2013-03-10 22:15:00,
2013-03-10 18:30:00,42.1,31.5,30.31,ENE,71,5.0,8.0,66,0.00,CLR,,0.00,WeatherDisplay:10.37,2013-03-10 22:30:00,
2013-03-10 18:45:00,41.0,31.2,30.31,East,84,6.0,10.0,68,0.00,CLR,,0.00,WeatherDisplay:10.37,2013-03-10 22:45:00,
2013-03-10 19:00:00,39.9,30.9,30.31,East,92,5.0,7.0,70,0.00,CLR,,0.00,WeatherDisplay:10.37,2013-03-10 23:00:00,
2013-03-10 19:15:00,38.8,31.3,30.31,ESE,103,3.0,6.0,74,0.00,CLR,,0.00,WeatherDisplay:10.37,2013-03-10 23:15:00,
2013-03-10 19:30:00,38.5,31.6,30.31,East,93,1.0,1.0,76,0.00,CLR,,0.00,WeatherDisplay:10.37,2013-03-10 23:30:00,
2013-03-10 19:45:00,37.9,32.0,30.31,East,91,1.0,3.0,79,0.00,CLR,,0.00,WeatherDisplay:10.37,2013-03-10 23:45:00,
2013-03-10 20:00:00,37.6,32.0,30.31,East,90,0.0,1.0,80,0.00,CLR,,0.00,WeatherDisplay:10.37,2013-03-11 00:00:00,
2013-03-10 20:15:00,37.8,32.8,30.31,East,93,2.0,5.0,82,0.00,CLR,,0.00,WeatherDisplay:10.37,2013-03-11 00:15:00,
2013-03-10 20:30:00,37.8,33.1,30.31,East,84,1.0,4.0,83,0.00,CLR,,0.00,WeatherDisplay:10.37,2013-03-11 00:30:00,
2013-03-10 20:45:00,37.8,33.4,30.31,ESE,113,1.0,3.0,84,0.00,CLR,,0.00,WeatherDisplay:10.37,2013-03-11 00:45:00,
2013-03-10 21:15:00,37.6,33.8,30.31,ENE,70,1.0,1.0,86,0.00,CLR,,0.00,WeatherDisplay:10.37,2013-03-11 01:15:00,
2013-03-10 21:30:00,37.4,33.9,30.31,ESE,104,1.0,5.0,87,0.00,CLR,,0.00,WeatherDisplay:10.37,2013-03-11 01:30:00,
2013-03-10 21:45:00,37.4,34.5,30.31,East,84,2.0,5.0,89,0.00,CLR,,0.00,WeatherDisplay:10.37,2013-03-11 01:45:00,
2013-03-10 22:00:00,37.6,34.6,30.31,ESE,103,1.0,4.0,89,0.00,CLR,,0.00,WeatherDisplay:10.37,2013-03-11 02:00:00,
2013-03-10 22:15:00,36.9,34.2,30.31,East,90,0.0,1.0,90,0.00,CLR,,0.00,WeatherDisplay:10.37,2013-03-11 02:15:00,
2013-03-10 22:30:00,36.0,33.3,30.31,East,90,0.0,0.0,90,0.00,CLR,,0.00,WeatherDisplay:10.37,2013-03-11 02:30:00,
2013-03-10 22:45:00,36.0,33.3,30.31,East,90,0.0,0.0,90,0.00,CLR,,0.00,WeatherDisplay:10.37,2013-03-11 02:45:00,
2013-03-10 23:00:00,35.4,33.1,30.31,East,95,0.0,0.0,91,0.00,CLR,,0.00,WeatherDisplay:10.37,2013-03-11 03:00:00,
2013-03-10 23:15:00,35.4,33.1,30.31,South,180,0.0,0.0,91,0.00,CLR,,0.00,WeatherDisplay:10.37,2013-03-11 03:15:00,
2013-03-10 23:30:00,35.1,33.0,30.31,SE,125,0.0,0.0,92,0.00,CLR,,0.00,WeatherDisplay:10.37,2013-03-11 03:30:00,
2013-03-10 23:45:00,36.0,34.1,30.31,NE,35,0.0,0.0,93,0.00,CLR,,0.00,WeatherDisplay:10.37,2013-03-11 03:45:00,